sensor_id;sensor_type;location;lat;lon;timestamp;temperature;humidity
23083;DHT22;11709;52.420;10.538;2022-09-12T00:02:36;13.30;99.90
23083;DHT22;11709;52.420;10.538;2022-09-12T00:06:38;13.30;99.90
23083;DHT22;11709;52.420;10.538;2022-09-12T00:10:42;13.20;99.90
23083;DHT22;11709;52.420;10.538;2022-09-12T00:14:45;13.20;99.90
23083;DHT22;11709;52.420;10.538;2022-09-12T00:18:48;13.20;99.90
23083;DHT22;11709;52.420;10.538;2022-09-12T00:22:51;13.10;99.90
23083;DHT22;11709;52.420;10.538;2022-09-12T00:26:53;13.10;99.90
23083;DHT22;11709;52.420;10.538;2022-09-12T00:30:56;13.10;99.90
23083;DHT22;11709;52.420;10.538;2022-09-12T00:34:58;13.00;99.90
23083;DHT22;11709;52.420;10.538;2022-09-12T00:39:03;13.00;99.90
23083;DHT22;11709;52.420;10.538;2022-09-12T00:43:09;12.80;99.90
23083;DHT22;11709;52.420;10.538;2022-09-12T00:47:21;12.80;99.90
23083;DHT22;11709;52.420;10.538;2022-09-12T00:51:24;12.70;99.90
23083;DHT22;11709;52.420;10.538;2022-09-12T00:55:35;12.60;99.90
23083;DHT22;11709;52.420;10.538;2022-09-12T00:59:38;12.60;99.90
23083;DHT22;11709;52.420;10.538;2022-09-12T01:03:41;12.50;99.90
23083;DHT22;11709;52.420;10.538;2022-09-12T01:07:44;12.40;99.90
23083;DHT22;11709;52.420;10.538;2022-09-12T01:11:50;12.40;99.90
23083;DHT22;11709;52.420;10.538;2022-09-12T01:15:53;12.40;99.90
23083;DHT22;11709;52.420;10.538;2022-09-12T01:20:32;12.40;99.90
23083;DHT22;11709;52.420;10.538;2022-09-12T01:29:34;12.40;99.90
23083;DHT22;11709;52.420;10.538;2022-09-12T01:42:32;12.20;99.90
23083;DHT22;11709;52.420;10.538;2022-09-12T01:50:51;12.20;99.90
23083;DHT22;11709;52.420;10.538;2022-09-12T01:55:03;12.20;99.90
23083;DHT22;11709;52.420;10.538;2022-09-12T01:59:04;12.20;99.90
23083;DHT22;11709;52.420;10.538;2022-09-12T02:03:09;12.20;99.90
23083;DHT22;11709;52.420;10.538;2022-09-12T02:07:28;12.10;99.90
23083;DHT22;11709;52.420;10.538;2022-09-12T02:11:27;12.00;99.90
23083;DHT22;11709;52.420;10.538;2022-09-12T02:15:47;12.00;99.90
23083;DHT22;11709;52.420;10.538;2022-09-12T02:19:55;11.90;99.90
23083;DHT22;11709;52.420;10.538;2022-09-12T02:24:01;11.90;99.90
23083;DHT22;11709;52.420;10.538;2022-09-12T02:28:07;11.90;99.90
23083;DHT22;11709;52.420;10.538;2022-09-12T02:32:16;11.80;99.90
23083;DHT22;11709;52.420;10.538;2022-09-12T02:40:47;11.80;99.90
23083;DHT22;11709;52.420;10.538;2022-09-12T02:44:51;11.80;99.90
23083;DHT22;11709;52.420;10.538;2022-09-12T02:48:55;11.80;99.90
23083;DHT22;11709;52.420;10.538;2022-09-12T02:53:00;11.70;99.90
23083;DHT22;11709;52.420;10.538;2022-09-12T02:57:19;11.80;99.90
23083;DHT22;11709;52.420;10.538;2022-09-12T03:05:54;11.60;99.90
23083;DHT22;11709;52.420;10.538;2022-09-12T03:10:02;11.60;99.90
23083;DHT22;11709;52.420;10.538;2022-09-12T03:14:06;11.70;99.90
23083;DHT22;11709;52.420;10.538;2022-09-12T03:19:12;11.60;99.90
23083;DHT22;11709;52.420;10.538;2022-09-12T03:22:53;11.60;99.90
23083;DHT22;11709;52.420;10.538;2022-09-12T03:27:16;11.60;99.90
23083;DHT22;11709;52.420;10.538;2022-09-12T03:31:11;11.60;99.90
23083;DHT22;11709;52.420;10.538;2022-09-12T03:35:17;11.60;99.90
23083;DHT22;11709;52.420;10.538;2022-09-12T03:39:21;11.60;99.90
23083;DHT22;11709;52.420;10.538;2022-09-12T03:43:26;11.50;99.90
23083;DHT22;11709;52.420;10.538;2022-09-12T03:47:28;11.50;99.90
23083;DHT22;11709;52.420;10.538;2022-09-12T03:51:31;11.50;99.90
23083;DHT22;11709;52.420;10.538;2022-09-12T03:55:33;11.50;99.90
23083;DHT22;11709;52.420;10.538;2022-09-12T03:59:36;11.50;99.90
23083;DHT22;11709;52.420;10.538;2022-09-12T04:03:42;11.50;99.90
23083;DHT22;11709;52.420;10.538;2022-09-12T04:07:45;11.40;99.90
23083;DHT22;11709;52.420;10.538;2022-09-12T04:11:48;11.40;99.90
23083;DHT22;11709;52.420;10.538;2022-09-12T04:16:00;11.40;99.90
23083;DHT22;11709;52.420;10.538;2022-09-12T04:20:03;11.40;99.90
23083;DHT22;11709;52.420;10.538;2022-09-12T04:24:06;11.40;99.90
23083;DHT22;11709;52.420;10.538;2022-09-12T04:28:08;11.30;99.90
23083;DHT22;11709;52.420;10.538;2022-09-12T04:32:11;11.30;99.90
23083;DHT22;11709;52.420;10.538;2022-09-12T04:36:15;11.30;99.90
23083;DHT22;11709;52.420;10.538;2022-09-12T04:40:19;11.30;99.90
23083;DHT22;11709;52.420;10.538;2022-09-12T04:44:21;11.30;99.90
23083;DHT22;11709;52.420;10.538;2022-09-12T04:48:24;11.30;99.90
23083;DHT22;11709;52.420;10.538;2022-09-12T04:52:27;11.30;99.90
23083;DHT22;11709;52.420;10.538;2022-09-12T04:56:30;11.30;99.90
23083;DHT22;11709;52.420;10.538;2022-09-12T05:00:32;11.30;99.90
23083;DHT22;11709;52.420;10.538;2022-09-12T05:04:35;11.30;99.90
23083;DHT22;11709;52.420;10.538;2022-09-12T05:08:38;11.30;99.90
23083;DHT22;11709;52.420;10.538;2022-09-12T05:12:40;11.40;99.90
23083;DHT22;11709;52.420;10.538;2022-09-12T05:16:43;11.40;99.90
23083;DHT22;11709;52.420;10.538;2022-09-12T05:20:46;11.40;99.90
23083;DHT22;11709;52.420;10.538;2022-09-12T05:24:49;11.40;99.90
23083;DHT22;11709;52.420;10.538;2022-09-12T05:28:52;11.50;99.90
23083;DHT22;11709;52.420;10.538;2022-09-12T05:32:55;11.50;99.90
23083;DHT22;11709;52.420;10.538;2022-09-12T05:36:57;11.50;99.90
23083;DHT22;11709;52.420;10.538;2022-09-12T05:41:16;11.60;99.90
23083;DHT22;11709;52.420;10.538;2022-09-12T05:45:19;11.60;99.90
23083;DHT22;11709;52.420;10.538;2022-09-12T05:49:22;11.70;99.90
23083;DHT22;11709;52.420;10.538;2022-09-12T05:53:25;11.80;99.90
23083;DHT22;11709;52.420;10.538;2022-09-12T05:57:28;11.90;99.90
23083;DHT22;11709;52.420;10.538;2022-09-12T06:01:33;12.00;99.90
23083;DHT22;11709;52.420;10.538;2022-09-12T06:05:36;12.10;99.90
23083;DHT22;11709;52.420;10.538;2022-09-12T06:09:38;12.20;99.90
23083;DHT22;11709;52.420;10.538;2022-09-12T06:13:42;12.30;99.90
23083;DHT22;11709;52.420;10.538;2022-09-12T06:17:47;12.40;99.90
23083;DHT22;11709;52.420;10.538;2022-09-12T06:21:49;12.60;99.90
23083;DHT22;11709;52.420;10.538;2022-09-12T06:25:52;12.70;99.90
23083;DHT22;11709;52.420;10.538;2022-09-12T06:29:54;12.90;99.90
23083;DHT22;11709;52.420;10.538;2022-09-12T06:34:04;13.10;99.90
23083;DHT22;11709;52.420;10.538;2022-09-12T06:38:03;13.20;99.90
23083;DHT22;11709;52.420;10.538;2022-09-12T06:42:06;13.40;99.90
23083;DHT22;11709;52.420;10.538;2022-09-12T06:46:09;13.50;99.90
23083;DHT22;11709;52.420;10.538;2022-09-12T06:50:13;13.70;99.90
23083;DHT22;11709;52.420;10.538;2022-09-12T06:54:16;13.90;99.90
23083;DHT22;11709;52.420;10.538;2022-09-12T06:58:18;14.10;99.90
23083;DHT22;11709;52.420;10.538;2022-09-12T07:02:21;14.30;99.90
23083;DHT22;11709;52.420;10.538;2022-09-12T07:06:36;14.50;99.90
23083;DHT22;11709;52.420;10.538;2022-09-12T07:10:39;14.80;99.90
23083;DHT22;11709;52.420;10.538;2022-09-12T07:14:42;15.10;99.90
23083;DHT22;11709;52.420;10.538;2022-09-12T07:18:49;15.30;99.90
23083;DHT22;11709;52.420;10.538;2022-09-12T07:22:52;15.50;99.90
23083;DHT22;11709;52.420;10.538;2022-09-12T07:26:55;15.80;99.90
23083;DHT22;11709;52.420;10.538;2022-09-12T07:31:03;16.10;99.90
23083;DHT22;11709;52.420;10.538;2022-09-12T07:35:02;16.20;99.90
23083;DHT22;11709;52.420;10.538;2022-09-12T07:39:05;16.20;99.90
23083;DHT22;11709;52.420;10.538;2022-09-12T07:43:08;16.40;99.90
23083;DHT22;11709;52.420;10.538;2022-09-12T07:47:11;16.60;99.90
23083;DHT22;11709;52.420;10.538;2022-09-12T07:51:13;17.00;99.90
23083;DHT22;11709;52.420;10.538;2022-09-12T07:55:16;17.10;99.90
23083;DHT22;11709;52.420;10.538;2022-09-12T07:59:18;17.40;99.90
23083;DHT22;11709;52.420;10.538;2022-09-12T08:03:21;17.60;99.90
23083;DHT22;11709;52.420;10.538;2022-09-12T08:07:23;17.70;99.90
23083;DHT22;11709;52.420;10.538;2022-09-12T08:11:27;18.20;99.90
23083;DHT22;11709;52.420;10.538;2022-09-12T08:15:30;18.30;99.90
23083;DHT22;11709;52.420;10.538;2022-09-12T08:19:33;18.50;99.90
23083;DHT22;11709;52.420;10.538;2022-09-12T08:23:35;18.80;99.90
23083;DHT22;11709;52.420;10.538;2022-09-12T08:27:38;19.30;99.90
23083;DHT22;11709;52.420;10.538;2022-09-12T08:31:41;19.70;99.90
23083;DHT22;11709;52.420;10.538;2022-09-12T08:35:43;19.80;99.90
23083;DHT22;11709;52.420;10.538;2022-09-12T08:39:46;20.10;99.90
23083;DHT22;11709;52.420;10.538;2022-09-12T08:44:24;20.20;99.90
23083;DHT22;11709;52.420;10.538;2022-09-12T08:48:23;20.60;99.90
23083;DHT22;11709;52.420;10.538;2022-09-12T08:56:40;21.00;99.90
23083;DHT22;11709;52.420;10.538;2022-09-12T09:05:13;21.40;99.90
23083;DHT22;11709;52.420;10.538;2022-09-12T09:18:21;22.30;99.90
23083;DHT22;11709;52.420;10.538;2022-09-12T09:22:28;22.20;99.90
23083;DHT22;11709;52.420;10.538;2022-09-12T09:26:37;22.40;99.90
23083;DHT22;11709;52.420;10.538;2022-09-12T09:30:44;22.70;99.90
23083;DHT22;11709;52.420;10.538;2022-09-12T09:34:40;22.80;99.90
23083;DHT22;11709;52.420;10.538;2022-09-12T09:42:58;22.70;99.90
23083;DHT22;11709;52.420;10.538;2022-09-12T09:47:00;23.40;99.90
23083;DHT22;11709;52.420;10.538;2022-09-12T09:51:04;23.70;99.90
23083;DHT22;11709;52.420;10.538;2022-09-12T09:55:11;24.10;99.90
23083;DHT22;11709;52.420;10.538;2022-09-12T09:59:15;24.40;99.90
23083;DHT22;11709;52.420;10.538;2022-09-12T10:03:27;24.90;99.90
23083;DHT22;11709;52.420;10.538;2022-09-12T10:07:29;24.70;99.90
23083;DHT22;11709;52.420;10.538;2022-09-12T10:11:32;24.60;99.90
23083;DHT22;11709;52.420;10.538;2022-09-12T10:15:35;24.30;99.90
23083;DHT22;11709;52.420;10.538;2022-09-12T10:19:39;24.50;99.90
23083;DHT22;11709;52.420;10.538;2022-09-12T10:23:42;24.20;99.90
23083;DHT22;11709;52.420;10.538;2022-09-12T10:27:51;24.20;99.90
23083;DHT22;11709;52.420;10.538;2022-09-12T10:31:58;24.20;99.90
23083;DHT22;11709;52.420;10.538;2022-09-12T10:36:02;24.00;99.90
23083;DHT22;11709;52.420;10.538;2022-09-12T10:40:07;23.90;99.90
23083;DHT22;11709;52.420;10.538;2022-09-12T10:44:18;23.80;99.90
23083;DHT22;11709;52.420;10.538;2022-09-12T10:48:33;23.90;99.90
23083;DHT22;11709;52.420;10.538;2022-09-12T10:52:32;23.90;99.90
23083;DHT22;11709;52.420;10.538;2022-09-12T10:56:55;24.10;99.90
23083;DHT22;11709;52.420;10.538;2022-09-12T11:00:57;24.10;99.90
23083;DHT22;11709;52.420;10.538;2022-09-12T11:05:34;24.00;99.90
23083;DHT22;11709;52.420;10.538;2022-09-12T11:18:32;24.80;99.90
23083;DHT22;11709;52.420;10.538;2022-09-12T11:22:44;25.10;99.90
23083;DHT22;11709;52.420;10.538;2022-09-12T11:26:52;25.50;99.90
23083;DHT22;11709;52.420;10.538;2022-09-12T11:31:05;25.80;99.90
23083;DHT22;11709;52.420;10.538;2022-09-12T11:35:25;26.40;99.90
23083;DHT22;11709;52.420;10.538;2022-09-12T11:39:39;26.90;99.90
23083;DHT22;11709;52.420;10.538;2022-09-12T11:47:43;27.40;99.90
23083;DHT22;11709;52.420;10.538;2022-09-12T11:52:06;27.40;99.90
23083;DHT22;11709;52.420;10.538;2022-09-12T11:56:12;27.20;99.90
23083;DHT22;11709;52.420;10.538;2022-09-12T12:00:18;27.30;99.90
23083;DHT22;11709;52.420;10.538;2022-09-12T12:04:23;27.70;99.90
23083;DHT22;11709;52.420;10.538;2022-09-12T12:08:28;28.50;99.90
23083;DHT22;11709;52.420;10.538;2022-09-12T12:12:32;29.00;96.40
23083;DHT22;11709;52.420;10.538;2022-09-12T12:16:36;28.90;95.10
23083;DHT22;11709;52.420;10.538;2022-09-12T12:20:40;29.00;94.20
23083;DHT22;11709;52.420;10.538;2022-09-12T12:29:00;28.90;94.40
23083;DHT22;11709;52.420;10.538;2022-09-12T12:41:43;28.60;92.30
23083;DHT22;11709;52.420;10.538;2022-09-12T12:45:46;28.10;92.10
23083;DHT22;11709;52.420;10.538;2022-09-12T12:49:52;27.60;92.00
23083;DHT22;11709;52.420;10.538;2022-09-12T12:53:55;26.90;93.20
23083;DHT22;11709;52.420;10.538;2022-09-12T12:58:02;26.60;92.80
23083;DHT22;11709;52.420;10.538;2022-09-12T13:02:14;26.30;94.40
23083;DHT22;11709;52.420;10.538;2022-09-12T13:06:31;26.20;93.30
23083;DHT22;11709;52.420;10.538;2022-09-12T13:10:34;25.70;94.30
23083;DHT22;11709;52.420;10.538;2022-09-12T13:14:55;25.50;94.60
23083;DHT22;11709;52.420;10.538;2022-09-12T13:19:01;25.40;95.90
23083;DHT22;11709;52.420;10.538;2022-09-12T13:23:04;25.50;95.00
23083;DHT22;11709;52.420;10.538;2022-09-12T13:27:18;26.10;95.40
23083;DHT22;11709;52.420;10.538;2022-09-12T13:31:24;26.50;93.40
23083;DHT22;11709;52.420;10.538;2022-09-12T13:35:56;26.40;93.60
23083;DHT22;11709;52.420;10.538;2022-09-12T13:43:52;26.50;93.60
23083;DHT22;11709;52.420;10.538;2022-09-12T13:47:58;27.00;93.70
23083;DHT22;11709;52.420;10.538;2022-09-12T13:52:16;27.30;92.90
23083;DHT22;11709;52.420;10.538;2022-09-12T13:56:17;28.30;93.00
23083;DHT22;11709;52.420;10.538;2022-09-12T14:00:19;28.80;91.20
23083;DHT22;11709;52.420;10.538;2022-09-12T14:04:24;28.90;91.00
23083;DHT22;11709;52.420;10.538;2022-09-12T14:08:46;28.60;89.50
23083;DHT22;11709;52.420;10.538;2022-09-12T14:12:49;28.50;88.50
23083;DHT22;11709;52.420;10.538;2022-09-12T14:16:52;28.10;90.20
23083;DHT22;11709;52.420;10.538;2022-09-12T14:20:57;28.20;91.50
23083;DHT22;11709;52.420;10.538;2022-09-12T14:25:01;28.70;89.50
23083;DHT22;11709;52.420;10.538;2022-09-12T14:29:05;29.10;89.80
23083;DHT22;11709;52.420;10.538;2022-09-12T14:37:16;29.50;85.10
23083;DHT22;11709;52.420;10.538;2022-09-12T14:41:32;29.10;84.30
23083;DHT22;11709;52.420;10.538;2022-09-12T14:45:31;28.90;83.60
23083;DHT22;11709;52.420;10.538;2022-09-12T14:49:35;29.10;85.60
23083;DHT22;11709;52.420;10.538;2022-09-12T14:53:45;29.50;85.50
23083;DHT22;11709;52.420;10.538;2022-09-12T14:57:43;29.30;84.90
23083;DHT22;11709;52.420;10.538;2022-09-12T15:01:45;29.90;79.60
23083;DHT22;11709;52.420;10.538;2022-09-12T15:05:48;29.50;79.60
23083;DHT22;11709;52.420;10.538;2022-09-12T15:09:51;29.20;78.70
23083;DHT22;11709;52.420;10.538;2022-09-12T15:13:54;29.40;79.00
23083;DHT22;11709;52.420;10.538;2022-09-12T15:17:56;29.60;78.90
23083;DHT22;11709;52.420;10.538;2022-09-12T15:21:59;29.40;78.50
23083;DHT22;11709;52.420;10.538;2022-09-12T15:26:01;29.10;80.10
23083;DHT22;11709;52.420;10.538;2022-09-12T15:30:05;28.90;79.70
23083;DHT22;11709;52.420;10.538;2022-09-12T15:34:08;28.60;81.90
23083;DHT22;11709;52.420;10.538;2022-09-12T15:38:11;28.40;82.50
23083;DHT22;11709;52.420;10.538;2022-09-12T15:42:14;28.20;84.10
23083;DHT22;11709;52.420;10.538;2022-09-12T15:46:17;27.80;88.50
23083;DHT22;11709;52.420;10.538;2022-09-12T15:50:20;27.40;89.10
23083;DHT22;11709;52.420;10.538;2022-09-12T15:54:23;27.00;90.50
23083;DHT22;11709;52.420;10.538;2022-09-12T15:58:26;27.00;91.30
23083;DHT22;11709;52.420;10.538;2022-09-12T16:02:28;27.10;90.20
23083;DHT22;11709;52.420;10.538;2022-09-12T16:06:31;26.90;90.20
23083;DHT22;11709;52.420;10.538;2022-09-12T16:10:34;27.00;89.20
23083;DHT22;11709;52.420;10.538;2022-09-12T16:14:37;26.80;90.10
23083;DHT22;11709;52.420;10.538;2022-09-12T16:18:40;26.50;90.70
23083;DHT22;11709;52.420;10.538;2022-09-12T16:22:42;26.10;91.50
23083;DHT22;11709;52.420;10.538;2022-09-12T16:26:45;25.70;92.00
23083;DHT22;11709;52.420;10.538;2022-09-12T16:30:55;25.70;93.90
23083;DHT22;11709;52.420;10.538;2022-09-12T16:34:58;25.50;95.00
23083;DHT22;11709;52.420;10.538;2022-09-12T16:39:00;25.20;97.40
23083;DHT22;11709;52.420;10.538;2022-09-12T16:43:03;25.00;98.50
23083;DHT22;11709;52.420;10.538;2022-09-12T16:47:05;24.70;98.80
23083;DHT22;11709;52.420;10.538;2022-09-12T16:51:08;24.50;99.90
23083;DHT22;11709;52.420;10.538;2022-09-12T16:55:10;24.30;99.90
23083;DHT22;11709;52.420;10.538;2022-09-12T16:59:13;24.00;99.90
23083;DHT22;11709;52.420;10.538;2022-09-12T17:03:17;23.70;99.90
23083;DHT22;11709;52.420;10.538;2022-09-12T17:07:19;23.40;99.90
23083;DHT22;11709;52.420;10.538;2022-09-12T17:11:25;23.10;99.90
23083;DHT22;11709;52.420;10.538;2022-09-12T17:15:29;22.80;99.90
23083;DHT22;11709;52.420;10.538;2022-09-12T17:19:32;22.60;99.90
23083;DHT22;11709;52.420;10.538;2022-09-12T17:23:35;22.30;99.90
23083;DHT22;11709;52.420;10.538;2022-09-12T17:27:38;22.10;99.90
23083;DHT22;11709;52.420;10.538;2022-09-12T17:31:41;21.80;99.90
23083;DHT22;11709;52.420;10.538;2022-09-12T17:35:44;21.60;99.90
23083;DHT22;11709;52.420;10.538;2022-09-12T17:39:46;21.50;99.90
23083;DHT22;11709;52.420;10.538;2022-09-12T17:43:52;21.30;99.90
23083;DHT22;11709;52.420;10.538;2022-09-12T17:47:56;21.10;99.90
23083;DHT22;11709;52.420;10.538;2022-09-12T17:51:58;20.90;99.90
23083;DHT22;11709;52.420;10.538;2022-09-12T17:56:04;20.80;99.90
23083;DHT22;11709;52.420;10.538;2022-09-12T18:00:07;20.60;99.90
23083;DHT22;11709;52.420;10.538;2022-09-12T18:04:10;20.50;99.90
23083;DHT22;11709;52.420;10.538;2022-09-12T18:08:13;20.30;99.90
23083;DHT22;11709;52.420;10.538;2022-09-12T18:12:17;20.20;99.90
23083;DHT22;11709;52.420;10.538;2022-09-12T18:16:20;20.20;99.90
23083;DHT22;11709;52.420;10.538;2022-09-12T18:20:22;20.00;99.90
23083;DHT22;11709;52.420;10.538;2022-09-12T18:24:25;19.90;99.90
23083;DHT22;11709;52.420;10.538;2022-09-12T18:28:28;19.80;99.90
23083;DHT22;11709;52.420;10.538;2022-09-12T18:32:32;19.60;99.90
23083;DHT22;11709;52.420;10.538;2022-09-12T18:36:34;19.60;99.90
23083;DHT22;11709;52.420;10.538;2022-09-12T18:40:37;19.50;99.90
23083;DHT22;11709;52.420;10.538;2022-09-12T18:44:39;19.30;99.90
23083;DHT22;11709;52.420;10.538;2022-09-12T18:48:42;19.20;99.90
23083;DHT22;11709;52.420;10.538;2022-09-12T18:52:45;19.00;99.90
23083;DHT22;11709;52.420;10.538;2022-09-12T18:56:47;19.00;99.90
23083;DHT22;11709;52.420;10.538;2022-09-12T19:00:50;18.80;99.90
23083;DHT22;11709;52.420;10.538;2022-09-12T19:04:53;18.80;99.90
23083;DHT22;11709;52.420;10.538;2022-09-12T19:08:56;18.70;99.90
23083;DHT22;11709;52.420;10.538;2022-09-12T19:12:59;18.60;99.90
23083;DHT22;11709;52.420;10.538;2022-09-12T19:17:03;18.50;99.90
23083;DHT22;11709;52.420;10.538;2022-09-12T19:21:11;18.40;99.90
23083;DHT22;11709;52.420;10.538;2022-09-12T19:25:12;18.30;99.90
23083;DHT22;11709;52.420;10.538;2022-09-12T19:29:15;18.20;99.90
23083;DHT22;11709;52.420;10.538;2022-09-12T19:33:17;18.20;99.90
23083;DHT22;11709;52.420;10.538;2022-09-12T19:37:20;18.00;99.90
23083;DHT22;11709;52.420;10.538;2022-09-12T19:41:23;18.00;99.90
23083;DHT22;11709;52.420;10.538;2022-09-12T19:45:25;17.90;99.90
23083;DHT22;11709;52.420;10.538;2022-09-12T19:49:28;17.80;99.90
23083;DHT22;11709;52.420;10.538;2022-09-12T19:53:31;17.80;99.90
23083;DHT22;11709;52.420;10.538;2022-09-12T19:57:33;17.70;99.90
23083;DHT22;11709;52.420;10.538;2022-09-12T20:01:36;17.60;99.90
23083;DHT22;11709;52.420;10.538;2022-09-12T20:05:39;17.60;99.90
23083;DHT22;11709;52.420;10.538;2022-09-12T20:09:41;17.50;99.90
23083;DHT22;11709;52.420;10.538;2022-09-12T20:13:44;17.50;99.90
23083;DHT22;11709;52.420;10.538;2022-09-12T20:17:51;17.50;99.90
23083;DHT22;11709;52.420;10.538;2022-09-12T20:21:51;17.40;99.90
23083;DHT22;11709;52.420;10.538;2022-09-12T20:25:54;17.20;99.90
23083;DHT22;11709;52.420;10.538;2022-09-12T20:29:58;17.20;99.90
23083;DHT22;11709;52.420;10.538;2022-09-12T20:34:01;17.20;99.90
23083;DHT22;11709;52.420;10.538;2022-09-12T20:38:03;17.10;99.90
23083;DHT22;11709;52.420;10.538;2022-09-12T20:42:06;17.00;99.90
23083;DHT22;11709;52.420;10.538;2022-09-12T20:46:10;16.90;99.90
23083;DHT22;11709;52.420;10.538;2022-09-12T20:50:12;16.80;99.90
23083;DHT22;11709;52.420;10.538;2022-09-12T20:54:15;16.70;99.90
23083;DHT22;11709;52.420;10.538;2022-09-12T20:58:20;16.70;99.90
23083;DHT22;11709;52.420;10.538;2022-09-12T21:02:22;16.60;99.90
23083;DHT22;11709;52.420;10.538;2022-09-12T21:06:25;16.60;99.90
23083;DHT22;11709;52.420;10.538;2022-09-12T21:10:29;16.60;99.90
23083;DHT22;11709;52.420;10.538;2022-09-12T21:14:32;16.50;99.90
23083;DHT22;11709;52.420;10.538;2022-09-12T21:18:35;16.40;99.90
23083;DHT22;11709;52.420;10.538;2022-09-12T21:22:38;16.30;99.90
23083;DHT22;11709;52.420;10.538;2022-09-12T21:26:41;16.20;99.90
23083;DHT22;11709;52.420;10.538;2022-09-12T21:30:43;16.20;99.90
23083;DHT22;11709;52.420;10.538;2022-09-12T21:34:47;16.20;99.90
23083;DHT22;11709;52.420;10.538;2022-09-12T21:38:50;16.10;99.90
23083;DHT22;11709;52.420;10.538;2022-09-12T21:42:53;16.10;99.90
23083;DHT22;11709;52.420;10.538;2022-09-12T21:46:55;16.10;99.90
23083;DHT22;11709;52.420;10.538;2022-09-12T21:50:58;16.00;99.90
23083;DHT22;11709;52.420;10.538;2022-09-12T21:55:01;16.00;99.90
23083;DHT22;11709;52.420;10.538;2022-09-12T21:59:06;16.00;99.90
23083;DHT22;11709;52.420;10.538;2022-09-12T22:03:10;16.00;99.90
23083;DHT22;11709;52.420;10.538;2022-09-12T22:07:12;16.00;99.90
23083;DHT22;11709;52.420;10.538;2022-09-12T22:11:15;15.90;99.90
23083;DHT22;11709;52.420;10.538;2022-09-12T22:15:19;16.10;99.90
23083;DHT22;11709;52.420;10.538;2022-09-12T22:19:22;16.00;99.90
23083;DHT22;11709;52.420;10.538;2022-09-12T22:23:24;16.00;99.90
23083;DHT22;11709;52.420;10.538;2022-09-12T22:27:44;16.10;99.90
23083;DHT22;11709;52.420;10.538;2022-09-12T22:31:46;16.20;99.90
23083;DHT22;11709;52.420;10.538;2022-09-12T22:35:49;16.30;99.90
23083;DHT22;11709;52.420;10.538;2022-09-12T22:39:52;16.30;99.90
23083;DHT22;11709;52.420;10.538;2022-09-12T22:43:55;16.30;99.90
23083;DHT22;11709;52.420;10.538;2022-09-12T22:47:58;16.30;99.90
23083;DHT22;11709;52.420;10.538;2022-09-12T22:52:00;16.30;99.90
23083;DHT22;11709;52.420;10.538;2022-09-12T22:56:04;16.30;99.90
23083;DHT22;11709;52.420;10.538;2022-09-12T23:00:08;16.30;99.90
23083;DHT22;11709;52.420;10.538;2022-09-12T23:04:14;16.30;99.90
23083;DHT22;11709;52.420;10.538;2022-09-12T23:08:17;16.30;99.90
23083;DHT22;11709;52.420;10.538;2022-09-12T23:12:20;16.30;99.90
23083;DHT22;11709;52.420;10.538;2022-09-12T23:16:24;16.20;99.90
23083;DHT22;11709;52.420;10.538;2022-09-12T23:20:28;16.20;99.90
23083;DHT22;11709;52.420;10.538;2022-09-12T23:24:31;16.20;99.90
23083;DHT22;11709;52.420;10.538;2022-09-12T23:28:34;16.20;99.90
23083;DHT22;11709;52.420;10.538;2022-09-12T23:32:36;16.10;99.90
23083;DHT22;11709;52.420;10.538;2022-09-12T23:36:39;16.10;99.90
23083;DHT22;11709;52.420;10.538;2022-09-12T23:40:41;16.10;99.90
23083;DHT22;11709;52.420;10.538;2022-09-12T23:44:44;16.00;99.90
23083;DHT22;11709;52.420;10.538;2022-09-12T23:48:46;16.00;99.90
23083;DHT22;11709;52.420;10.538;2022-09-12T23:52:49;16.00;99.90
23083;DHT22;11709;52.420;10.538;2022-09-12T23:56:51;16.00;99.90
